createdAt,value
2022-10-11T00:00:06.195Z,2
2022-10-11T00:01:06.237Z,2
2022-10-11T00:02:06.193Z,3
2022-10-11T00:03:06.166Z,2
2022-10-11T00:04:06.170Z,2
2022-10-11T00:05:06.191Z,3
2022-10-11T00:06:06.955Z,2
2022-10-11T00:07:06.167Z,2
2022-10-11T00:08:06.185Z,2
2022-10-11T00:09:06.176Z,2
2022-10-11T00:10:06.184Z,2
2022-10-11T00:11:06.175Z,2
2022-10-11T00:12:06.191Z,2
2022-10-11T00:13:06.182Z,2
2022-10-11T00:14:06.173Z,2
2022-10-11T00:15:06.173Z,2
2022-10-11T00:16:06.635Z,2
2022-10-11T00:17:06.179Z,2
2022-10-11T00:18:06.183Z,2
2022-10-11T00:19:06.210Z,2
2022-10-11T00:20:06.218Z,2
2022-10-11T00:21:06.191Z,2
2022-10-11T00:22:06.184Z,2
2022-10-11T00:23:06.184Z,2
2022-10-11T00:24:06.188Z,2
2022-10-11T00:25:06.187Z,2
2022-10-11T00:26:06.517Z,2
2022-10-11T00:27:06.197Z,2
2022-10-11T00:28:06.333Z,2
2022-10-11T00:29:06.172Z,2
2022-10-11T00:30:06.189Z,2
2022-10-11T00:31:06.692Z,2
2022-10-11T00:32:06.176Z,2
2022-10-11T00:33:06.181Z,2
2022-10-11T00:34:06.186Z,2
2022-10-11T00:35:06.175Z,2
2022-10-11T00:36:06.756Z,2
2022-10-11T00:37:06.188Z,2
2022-10-11T00:38:06.177Z,2
2022-10-11T00:39:06.170Z,2
2022-10-11T00:40:06.191Z,2
2022-10-11T00:41:06.184Z,1
2022-10-11T00:42:06.192Z,2
2022-10-11T00:43:06.174Z,2
2022-10-11T00:44:06.169Z,2
2022-10-11T00:45:06.205Z,2
2022-10-11T00:46:06.753Z,2
2022-10-11T00:47:06.176Z,2
2022-10-11T00:48:06.176Z,2
2022-10-11T00:49:06.180Z,2
2022-10-11T00:50:06.218Z,2
2022-10-11T00:51:06.671Z,2
2022-10-11T00:52:06.179Z,2
2022-10-11T00:53:06.179Z,1
2022-10-11T00:54:06.189Z,2
2022-10-11T00:55:06.203Z,2
2022-10-11T00:56:06.535Z,2
2022-10-11T00:57:06.180Z,1
2022-10-11T00:58:06.196Z,2
2022-10-11T00:59:06.182Z,2
2022-10-11T01:00:06.204Z,1
2022-10-11T01:01:06.413Z,2
2022-10-11T01:02:06.191Z,2
2022-10-11T01:03:06.202Z,2
2022-10-11T01:04:06.178Z,1
2022-10-11T01:05:28.075Z,2
2022-10-11T01:06:06.618Z,2
2022-10-11T01:07:06.184Z,2
2022-10-11T01:08:06.183Z,2
2022-10-11T01:09:06.184Z,2
2022-10-11T01:10:06.195Z,2
2022-10-11T01:11:06.190Z,1
2022-10-11T01:12:06.180Z,2
2022-10-11T01:13:06.174Z,2
2022-10-11T01:14:06.167Z,1
2022-10-11T01:15:06.275Z,2
2022-10-11T01:16:06.679Z,1
2022-10-11T01:17:06.180Z,2
2022-10-11T01:18:06.176Z,2
2022-10-11T01:19:06.185Z,2
2022-10-11T01:20:06.196Z,2
2022-10-11T01:21:06.207Z,2
2022-10-11T01:22:06.185Z,2
2022-10-11T01:23:06.195Z,2
2022-10-11T01:24:08.781Z,1
2022-10-11T01:25:06.192Z,1
2022-10-11T01:26:06.863Z,2
2022-10-11T01:27:06.180Z,2
2022-10-11T01:28:06.390Z,2
2022-10-11T01:29:06.204Z,1
2022-10-11T01:30:06.183Z,1
2022-10-11T01:31:06.168Z,1
2022-10-11T01:32:06.178Z,2
2022-10-11T01:33:06.189Z,2
2022-10-11T01:34:06.196Z,1
2022-10-11T01:35:06.190Z,1
2022-10-11T01:36:06.723Z,1
2022-10-11T01:37:06.171Z,2
2022-10-11T01:38:06.183Z,2
2022-10-11T01:39:06.183Z,1
2022-10-11T01:40:06.208Z,2
2022-10-11T01:41:06.181Z,1
2022-10-11T01:42:06.178Z,1
2022-10-11T01:43:06.202Z,2
2022-10-11T01:44:06.184Z,2
2022-10-11T01:45:06.168Z,2
2022-10-11T01:46:06.705Z,2
2022-10-11T01:47:06.177Z,2
2022-10-11T01:48:06.172Z,2
2022-10-11T01:49:06.180Z,2
2022-10-11T01:50:06.171Z,2
2022-10-11T01:51:06.186Z,2
2022-10-11T01:52:06.210Z,1
2022-10-11T01:53:06.184Z,2
2022-10-11T01:54:06.191Z,2
2022-10-11T01:55:10.320Z,2
2022-10-11T01:56:06.622Z,2
2022-10-11T01:57:06.174Z,2
2022-10-11T01:58:06.180Z,2
2022-10-11T01:59:06.183Z,2
2022-10-11T02:00:06.184Z,2
2022-10-11T02:01:06.198Z,2
2022-10-11T02:02:06.184Z,2
2022-10-11T02:03:06.181Z,2
2022-10-11T02:04:06.182Z,2
2022-10-11T02:05:06.209Z,2
2022-10-11T02:06:06.682Z,2
2022-10-11T02:07:06.181Z,2
2022-10-11T02:08:06.207Z,2
2022-10-11T02:09:08.259Z,2
2022-10-11T02:10:06.202Z,2
2022-10-11T02:11:06.174Z,2
2022-10-11T02:12:06.180Z,2
2022-10-11T02:13:06.184Z,2
2022-10-11T02:14:06.180Z,2
2022-10-11T02:15:06.162Z,2
2022-10-11T02:16:06.504Z,2
2022-10-11T02:17:06.193Z,2
2022-10-11T02:18:06.176Z,2
2022-10-11T02:19:06.179Z,2
2022-10-11T02:20:06.176Z,2
2022-10-11T02:21:06.202Z,2
2022-10-11T02:22:06.183Z,2
2022-10-11T02:23:06.233Z,2
2022-10-11T02:24:06.200Z,2
2022-10-11T02:25:06.181Z,2
2022-10-11T02:26:06.783Z,2
2022-10-11T02:27:06.175Z,2
2022-10-11T02:28:06.379Z,2
2022-10-11T02:29:06.207Z,2
2022-10-11T02:30:06.183Z,2
2022-10-11T02:31:06.178Z,2
2022-10-11T02:32:06.169Z,2
2022-10-11T02:33:06.189Z,2
2022-10-11T02:34:06.180Z,2
2022-10-11T02:35:06.219Z,2
2022-10-11T02:36:06.819Z,2
2022-10-11T02:37:06.176Z,2
2022-10-11T02:38:06.187Z,2
2022-10-11T02:39:06.173Z,2
2022-10-11T02:40:06.220Z,2
2022-10-11T02:41:06.180Z,2
2022-10-11T02:42:06.178Z,2
2022-10-11T02:43:06.169Z,2
2022-10-11T02:44:06.182Z,2
2022-10-11T02:45:06.188Z,2
2022-10-11T02:46:06.710Z,2
2022-10-11T02:47:06.164Z,2
2022-10-11T02:48:06.196Z,2
2022-10-11T02:49:06.172Z,2
2022-10-11T02:50:06.233Z,2
2022-10-11T02:51:06.191Z,2
2022-10-11T02:52:06.171Z,2
2022-10-11T02:53:06.169Z,2
2022-10-11T02:54:06.210Z,2
2022-10-11T02:55:06.199Z,2
2022-10-11T02:56:06.456Z,2
2022-10-11T02:57:06.191Z,2
2022-10-11T02:58:06.175Z,2
2022-10-11T02:59:06.187Z,2
2022-10-11T03:00:06.183Z,2
2022-10-11T03:01:06.177Z,1
2022-10-11T03:02:06.343Z,2
2022-10-11T03:03:06.169Z,2
2022-10-11T03:04:06.180Z,2
2022-10-11T03:05:06.208Z,2
2022-10-11T03:06:06.596Z,2
2022-10-11T03:07:06.169Z,2
2022-10-11T03:08:06.177Z,2
2022-10-11T03:09:06.181Z,2
2022-10-11T03:10:06.180Z,2
2022-10-11T03:11:06.187Z,2
2022-10-11T03:12:06.176Z,2
2022-10-11T03:13:06.185Z,2
2022-10-11T03:14:06.179Z,2
2022-10-11T03:15:06.201Z,2
2022-10-11T03:16:06.188Z,2
2022-10-11T03:17:30.833Z,2
2022-10-11T03:18:06.183Z,2
2022-10-11T03:19:06.174Z,2
2022-10-11T03:20:06.220Z,3
2022-10-11T03:21:06.195Z,2
2022-10-11T03:22:06.180Z,3
2022-10-11T03:23:06.186Z,3
2022-10-11T03:24:06.181Z,3
2022-10-11T03:25:06.238Z,2
2022-10-11T03:26:06.497Z,3
2022-10-11T03:27:06.171Z,2
2022-10-11T03:28:06.177Z,2
2022-10-11T03:29:06.180Z,2
2022-10-11T03:30:06.195Z,3
2022-10-11T03:31:06.173Z,2
2022-10-11T03:33:06.196Z,2
2022-10-11T03:34:06.182Z,2
2022-10-11T03:35:06.211Z,2
2022-10-11T03:36:06.631Z,2
2022-10-11T03:37:06.175Z,2
2022-10-11T03:38:08.230Z,2
2022-10-11T03:39:06.181Z,2
2022-10-11T03:40:06.187Z,2
2022-10-11T03:41:06.170Z,1
2022-10-11T03:42:06.183Z,1
2022-10-11T03:43:06.188Z,2
2022-10-11T03:44:06.172Z,2
2022-10-11T03:45:06.189Z,2
2022-10-11T03:46:06.691Z,2
2022-10-11T03:47:06.188Z,2
2022-10-11T03:48:06.187Z,2
2022-10-11T03:49:06.184Z,2
2022-10-11T03:50:06.212Z,2
2022-10-11T03:51:06.187Z,1
2022-10-11T03:52:06.172Z,2
2022-10-11T03:55:06.188Z,2
2022-10-11T03:56:08.592Z,2
2022-10-11T03:57:06.187Z,2
2022-10-11T03:58:06.181Z,2
2022-10-11T03:59:06.186Z,2
2022-10-11T04:00:06.218Z,2
2022-10-11T04:01:06.186Z,2
2022-10-11T04:02:06.324Z,2
2022-10-11T04:03:06.172Z,2
2022-10-11T04:04:06.178Z,2
2022-10-11T04:05:06.228Z,2
2022-10-11T04:06:06.544Z,2
2022-10-11T04:07:06.179Z,2
2022-10-11T04:08:09.820Z,2
2022-10-11T04:09:06.186Z,2
2022-10-11T04:10:06.183Z,2
2022-10-11T04:11:06.180Z,2
2022-10-11T04:12:06.193Z,2
2022-10-11T04:13:06.171Z,2
2022-10-11T04:14:06.189Z,2
2022-10-11T04:15:06.198Z,2
2022-10-11T04:16:06.689Z,2
2022-10-11T04:17:06.175Z,2
2022-10-11T04:18:06.173Z,2
2022-10-11T04:19:06.170Z,2
2022-10-11T04:20:06.273Z,2
2022-10-11T04:21:06.170Z,2
2022-10-11T04:22:06.174Z,2
2022-10-11T04:23:06.189Z,2
2022-10-11T04:24:06.181Z,2
2022-10-11T04:25:06.257Z,2
2022-10-11T04:26:06.607Z,2
2022-10-11T04:27:06.199Z,2
2022-10-11T04:28:06.178Z,2
2022-10-11T04:29:06.186Z,2
2022-10-11T04:30:06.192Z,3
2022-10-11T04:31:06.187Z,2
2022-10-11T04:32:06.185Z,3
2022-10-11T04:33:06.172Z,3
2022-10-11T04:34:06.195Z,3
2022-10-11T04:35:06.265Z,3
2022-10-11T04:36:06.624Z,3
2022-10-11T04:37:06.180Z,2
2022-10-11T04:38:06.177Z,3
2022-10-11T04:39:06.241Z,3
2022-10-11T04:40:06.195Z,2
2022-10-11T04:41:06.186Z,3
2022-10-11T04:42:06.194Z,3
2022-10-11T04:43:06.179Z,3
2022-10-11T04:44:06.175Z,3
2022-10-11T04:45:06.189Z,3
2022-10-11T04:46:06.766Z,2
2022-10-11T04:47:06.197Z,3
2022-10-11T04:48:06.185Z,3
2022-10-11T04:49:06.218Z,3
2022-10-11T04:50:06.208Z,3
2022-10-11T04:51:06.185Z,3
2022-10-11T04:52:06.183Z,3
2022-10-11T04:53:06.183Z,3
2022-10-11T04:54:06.180Z,3
2022-10-11T04:55:06.178Z,3
2022-10-11T04:56:06.563Z,3
2022-10-11T04:57:06.174Z,4
2022-10-11T04:58:06.235Z,3
2022-10-11T04:59:06.174Z,3
2022-10-11T05:00:06.207Z,4
2022-10-11T05:01:06.173Z,3
2022-10-11T05:02:06.244Z,3
2022-10-11T05:03:06.180Z,3
2022-10-11T05:04:06.172Z,4
2022-10-11T05:05:06.185Z,3
2022-10-11T05:06:06.444Z,4
2022-10-11T05:07:06.177Z,3
2022-10-11T05:08:06.181Z,4
2022-10-11T05:09:06.194Z,4
2022-10-11T05:10:06.194Z,3
2022-10-11T05:11:06.176Z,3
2022-10-11T05:12:06.185Z,4
2022-10-11T05:13:06.175Z,4
2022-10-11T05:14:06.188Z,3
2022-10-11T05:15:06.252Z,3
2022-10-11T05:16:10.695Z,4
2022-10-11T05:17:06.182Z,5
2022-10-11T05:18:06.184Z,4
2022-10-11T05:19:06.183Z,5
2022-10-11T05:20:06.190Z,4
2022-10-11T05:21:06.192Z,4
2022-10-11T05:22:06.194Z,4
2022-10-11T05:23:06.174Z,3
2022-10-11T05:24:06.192Z,5
2022-10-11T05:25:06.191Z,4
2022-10-11T05:26:06.685Z,5
2022-10-11T05:27:06.242Z,4
2022-10-11T05:28:06.176Z,4
2022-10-11T05:29:06.191Z,5
2022-10-11T05:30:06.188Z,4
2022-10-11T05:31:06.185Z,5
2022-10-11T05:32:06.167Z,4
2022-10-11T05:33:06.166Z,4
2022-10-11T05:34:06.192Z,4
2022-10-11T05:35:06.192Z,5
2022-10-11T05:36:06.673Z,5
2022-10-11T05:37:06.192Z,5
2022-10-11T05:38:06.182Z,4
2022-10-11T05:39:06.170Z,5
2022-10-11T05:40:06.185Z,4
2022-10-11T05:41:06.191Z,4
2022-10-11T05:42:09.723Z,5
2022-10-11T05:43:06.171Z,4
2022-10-11T05:44:06.189Z,5
2022-10-11T05:45:06.320Z,5
2022-10-11T05:46:06.750Z,5
2022-10-11T05:47:06.173Z,4
2022-10-11T05:48:06.194Z,6
2022-10-11T05:49:06.188Z,6
2022-10-11T05:50:06.185Z,5
2022-10-11T05:51:06.204Z,5
2022-10-11T05:52:06.182Z,5
2022-10-11T05:53:06.190Z,5
2022-10-11T05:54:06.190Z,4
2022-10-11T05:55:06.206Z,5
2022-10-11T05:57:06.179Z,5
2022-10-11T05:58:06.226Z,6
2022-10-11T05:59:06.187Z,5
2022-10-11T06:00:06.226Z,4
2022-10-11T06:01:06.216Z,5
2022-10-11T06:02:06.174Z,5
2022-10-11T06:03:06.197Z,4
2022-10-11T06:04:06.181Z,5
2022-10-11T06:05:08.473Z,5
2022-10-11T06:06:06.633Z,5
2022-10-11T06:07:06.174Z,5
2022-10-11T06:08:06.181Z,5
2022-10-11T06:09:06.178Z,5
2022-10-11T06:10:06.214Z,6
2022-10-11T06:11:09.147Z,5
2022-10-11T06:12:06.179Z,5
2022-10-11T06:13:06.204Z,6
2022-10-11T06:14:06.192Z,5
2022-10-11T06:15:06.253Z,5
2022-10-11T06:16:06.706Z,5
2022-10-11T06:17:06.190Z,5
2022-10-11T06:18:06.179Z,6
2022-10-11T06:19:06.184Z,6
2022-10-11T06:20:06.189Z,6
2022-10-11T06:21:06.214Z,6
2022-10-11T06:22:06.174Z,5
2022-10-11T06:23:06.205Z,6
2022-10-11T06:24:06.184Z,5
2022-10-11T06:25:06.202Z,5
2022-10-11T06:26:06.614Z,5
2022-10-11T06:27:06.188Z,6
2022-10-11T06:28:06.201Z,5
2022-10-11T06:29:06.177Z,6
2022-10-11T06:30:06.276Z,5
2022-10-11T06:31:06.311Z,6
2022-10-11T06:32:06.201Z,5
2022-10-11T06:33:06.175Z,5
2022-10-11T06:34:06.187Z,6
2022-10-11T06:35:06.198Z,6
2022-10-11T06:36:06.509Z,6
2022-10-11T06:37:06.172Z,5
2022-10-11T06:38:06.184Z,6
2022-10-11T06:39:06.184Z,6
2022-10-11T06:40:06.170Z,6
2022-10-11T06:41:06.185Z,6
2022-10-11T06:42:06.189Z,6
2022-10-11T06:43:06.191Z,5
2022-10-11T06:44:08.745Z,6
2022-10-11T06:45:06.185Z,6
2022-10-11T06:46:06.655Z,6
2022-10-11T06:47:06.186Z,5
2022-10-11T06:48:06.185Z,6
2022-10-11T06:49:06.202Z,6
2022-10-11T06:50:06.189Z,6
2022-10-11T06:51:06.182Z,6
2022-10-11T06:52:06.174Z,6
2022-10-11T06:53:06.182Z,6
2022-10-11T06:54:06.241Z,6
2022-10-11T06:56:06.718Z,6
2022-10-11T06:57:06.187Z,6
2022-10-11T06:58:06.179Z,6
2022-10-11T06:59:06.184Z,6
2022-10-11T07:00:10.258Z,6
2022-10-11T07:01:06.269Z,6
2022-10-11T07:02:06.202Z,6
2022-10-11T07:03:06.183Z,5
2022-10-11T07:04:06.226Z,6
2022-10-11T07:06:06.565Z,6
2022-10-11T07:07:06.186Z,6
2022-10-11T07:08:06.181Z,7
2022-10-11T07:09:06.179Z,6
2022-10-11T07:10:06.224Z,6
2022-10-11T07:11:06.169Z,6
2022-10-11T07:12:06.190Z,6
2022-10-11T07:13:06.200Z,6
2022-10-11T07:14:06.191Z,5
2022-10-11T07:15:06.216Z,6
2022-10-11T07:16:06.698Z,6
2022-10-11T07:17:06.187Z,7
2022-10-11T07:18:06.187Z,6
2022-10-11T07:19:06.206Z,6
2022-10-11T07:20:06.247Z,7
2022-10-11T07:21:06.182Z,6
2022-10-11T07:22:06.190Z,6
2022-10-11T07:23:06.180Z,6
2022-10-11T07:24:06.181Z,6
2022-10-11T07:25:06.190Z,7
2022-10-11T07:27:06.191Z,6
2022-10-11T07:28:06.188Z,7
2022-10-11T07:29:06.237Z,6
2022-10-11T07:30:06.179Z,7
2022-10-11T07:31:06.169Z,7
2022-10-11T07:32:06.181Z,7
2022-10-11T07:33:06.206Z,8
2022-10-11T07:34:06.184Z,7
2022-10-11T07:35:06.179Z,7
2022-10-11T07:36:06.622Z,7
2022-10-11T07:37:06.192Z,8
2022-10-11T07:38:06.195Z,7
2022-10-11T07:39:06.189Z,6
2022-10-11T07:40:06.187Z,7
2022-10-11T07:41:06.191Z,8
2022-10-11T07:43:06.181Z,7
2022-10-11T07:44:06.178Z,8
2022-10-11T07:45:06.183Z,8
2022-10-11T07:46:06.618Z,8
2022-10-11T07:47:10.930Z,8
2022-10-11T07:48:06.178Z,9
2022-10-11T07:50:06.194Z,9
2022-10-11T07:51:06.205Z,9
2022-10-11T07:52:06.201Z,9
2022-10-11T07:53:06.192Z,8
2022-10-11T07:54:07.365Z,9
2022-10-11T07:55:06.182Z,10
2022-10-11T07:56:06.863Z,9
2022-10-11T07:57:06.197Z,9
2022-10-11T07:58:06.193Z,10
2022-10-11T08:00:06.250Z,10
2022-10-11T08:01:06.253Z,10
2022-10-11T08:02:06.197Z,11
2022-10-11T08:03:06.178Z,10
2022-10-11T08:04:06.205Z,11
2022-10-11T08:05:06.209Z,9
2022-10-11T08:06:06.537Z,10
2022-10-11T08:07:06.190Z,11
2022-10-11T08:08:06.221Z,11
2022-10-11T08:09:06.193Z,11
2022-10-11T08:10:06.200Z,12
2022-10-11T08:11:06.175Z,11
2022-10-11T08:12:06.197Z,12
2022-10-11T08:13:06.188Z,11
2022-10-11T08:14:06.197Z,11
2022-10-11T08:15:06.199Z,12
2022-10-11T08:16:06.518Z,12
2022-10-11T08:17:06.191Z,11
2022-10-11T08:18:06.185Z,11
2022-10-11T08:19:06.168Z,12
2022-10-11T08:20:06.200Z,11
2022-10-11T08:21:06.201Z,12
2022-10-11T08:22:06.184Z,12
2022-10-11T08:23:06.178Z,12
2022-10-11T08:24:06.193Z,11
2022-10-11T08:25:06.195Z,12
2022-10-11T08:26:06.690Z,12
2022-10-11T08:27:06.205Z,13
2022-10-11T08:28:06.185Z,13
2022-10-11T08:29:06.192Z,12
2022-10-11T08:30:06.198Z,13
2022-10-11T08:31:06.196Z,11
2022-10-11T08:32:06.206Z,12
2022-10-11T08:33:08.644Z,11
2022-10-11T08:34:06.172Z,12
2022-10-11T08:35:06.218Z,12
2022-10-11T08:36:06.745Z,11
2022-10-11T08:37:06.195Z,12
2022-10-11T08:38:06.175Z,12
2022-10-11T08:39:06.181Z,12
2022-10-11T08:40:06.185Z,11
2022-10-11T08:41:06.183Z,12
2022-10-11T08:42:06.190Z,10
2022-10-11T08:43:06.285Z,12
2022-10-11T08:44:06.173Z,11
2022-10-11T08:45:11.064Z,12
2022-10-11T08:46:06.551Z,11
2022-10-11T08:47:06.173Z,11
2022-10-11T08:48:06.181Z,11
2022-10-11T08:49:06.194Z,11
2022-10-11T08:50:06.207Z,11
2022-10-11T08:51:06.206Z,10
2022-10-11T08:52:06.190Z,11
2022-10-11T08:53:06.176Z,11
2022-10-11T08:54:07.798Z,11
2022-10-11T08:55:06.221Z,10
2022-10-11T08:56:06.562Z,12
2022-10-11T08:57:06.181Z,11
2022-10-11T08:58:06.184Z,12
2022-10-11T08:59:06.254Z,10
2022-10-11T09:00:06.184Z,10
2022-10-11T09:01:06.279Z,11
2022-10-11T09:02:06.188Z,12
2022-10-11T09:03:08.992Z,12
2022-10-11T09:04:06.183Z,12
2022-10-11T09:05:06.210Z,12
2022-10-11T09:06:06.638Z,11
2022-10-11T09:07:06.231Z,12
2022-10-11T09:08:06.188Z,12
2022-10-11T09:09:06.196Z,12
2022-10-11T09:10:06.193Z,13
2022-10-11T09:11:06.277Z,12
2022-10-11T09:12:06.177Z,11
2022-10-11T09:13:06.201Z,12
2022-10-11T09:14:06.191Z,12
2022-10-11T09:15:06.188Z,12
2022-10-11T09:16:06.621Z,12
2022-10-11T09:17:06.171Z,12
2022-10-11T09:18:06.187Z,13
2022-10-11T09:19:06.188Z,13
2022-10-11T09:20:06.210Z,13
2022-10-11T09:21:06.209Z,12
2022-10-11T09:22:06.185Z,12
2022-10-11T09:23:06.199Z,13
2022-10-11T09:24:06.186Z,12
2022-10-11T09:25:06.227Z,13
2022-10-11T09:26:06.563Z,13
2022-10-11T09:27:06.204Z,13
2022-10-11T09:28:06.176Z,13
2022-10-11T09:29:06.265Z,12
2022-10-11T09:30:06.209Z,13
2022-10-11T09:31:06.263Z,14
2022-10-11T09:32:06.174Z,13
2022-10-11T09:33:06.190Z,13
2022-10-11T09:34:06.194Z,13
2022-10-11T09:35:06.198Z,13
2022-10-11T09:36:06.595Z,12
2022-10-11T09:37:06.221Z,14
2022-10-11T09:38:06.198Z,13
2022-10-11T09:39:06.889Z,13
2022-10-11T09:40:06.192Z,13
2022-10-11T09:41:06.200Z,15
2022-10-11T09:42:06.198Z,14
2022-10-11T09:43:06.189Z,13
2022-10-11T09:44:06.186Z,13
2022-10-11T09:45:06.177Z,14
2022-10-11T09:46:06.686Z,12
2022-10-11T09:47:06.201Z,14
2022-10-11T09:48:06.176Z,13
2022-10-11T09:49:06.182Z,12
2022-10-11T09:50:06.203Z,13
2022-10-11T09:51:06.188Z,12
2022-10-11T09:52:06.183Z,11
2022-10-11T09:53:06.247Z,13
2022-10-11T09:54:06.191Z,13
2022-10-11T09:55:06.201Z,13
2022-10-11T09:56:06.575Z,13
2022-10-11T09:57:06.170Z,13
2022-10-11T09:58:06.220Z,12
2022-10-11T09:59:06.202Z,12
2022-10-11T10:00:06.201Z,13
2022-10-11T10:01:08.290Z,12
2022-10-11T10:02:06.270Z,12
2022-10-11T10:03:06.192Z,12
2022-10-11T10:04:06.192Z,13
2022-10-11T10:05:06.171Z,12
2022-10-11T10:06:06.736Z,11
2022-10-11T10:07:06.202Z,12
2022-10-11T10:08:06.218Z,12
2022-10-11T10:09:06.201Z,12
2022-10-11T10:10:06.209Z,12
2022-10-11T10:11:06.193Z,12
2022-10-11T10:12:06.183Z,12
2022-10-11T10:13:06.199Z,12
2022-10-11T10:14:06.199Z,12
2022-10-11T10:15:06.214Z,11
2022-10-11T10:16:06.592Z,12
2022-10-11T10:17:06.185Z,12
2022-10-11T10:18:06.195Z,11
2022-10-11T10:19:06.200Z,12
2022-10-11T10:20:06.196Z,13
2022-10-11T10:21:06.192Z,12
2022-10-11T10:22:06.211Z,12
2022-10-11T10:23:06.199Z,11
2022-10-11T10:24:06.202Z,12
2022-10-11T10:25:06.288Z,11
2022-10-11T10:26:06.676Z,11
2022-10-11T10:27:06.242Z,11
2022-10-11T10:28:06.206Z,11
2022-10-11T10:29:06.185Z,13
2022-10-11T10:30:06.193Z,10
2022-10-11T10:31:06.191Z,11
2022-10-11T10:32:14.366Z,12
2022-10-11T10:33:06.184Z,12
2022-10-11T10:34:06.202Z,11
2022-10-11T10:35:06.216Z,12
2022-10-11T10:36:06.596Z,11
2022-10-11T10:37:06.184Z,11
2022-10-11T10:38:06.206Z,10
2022-10-11T10:39:06.216Z,11
2022-10-11T10:40:06.224Z,10
2022-10-11T10:41:06.193Z,10
2022-10-11T10:42:06.184Z,10
2022-10-11T10:43:06.180Z,10
2022-10-11T10:44:06.204Z,10
2022-10-11T10:45:11.196Z,9
2022-10-11T10:46:06.606Z,9
2022-10-11T10:47:06.225Z,9
2022-10-11T10:48:06.228Z,10
2022-10-11T10:50:06.201Z,8
2022-10-11T10:51:10.350Z,8
2022-10-11T10:52:06.204Z,9
2022-10-11T10:53:06.211Z,8
2022-10-11T10:54:06.196Z,9
2022-10-11T10:55:06.209Z,8
2022-10-11T10:56:06.577Z,8
2022-10-11T10:57:06.215Z,8
2022-10-11T10:58:06.192Z,9
2022-10-11T10:59:06.195Z,8
2022-10-11T11:00:06.198Z,10
2022-10-11T11:01:06.199Z,9
2022-10-11T11:02:28.232Z,9
2022-10-11T11:03:06.200Z,9
2022-10-11T11:04:06.200Z,10
2022-10-11T11:05:06.192Z,8
2022-10-11T11:06:06.514Z,10
2022-10-11T11:07:06.196Z,10
2022-10-11T11:08:06.190Z,8
2022-10-11T11:09:06.183Z,9
2022-10-11T11:10:06.231Z,8
2022-10-11T11:11:06.187Z,9
2022-10-11T11:12:06.212Z,8
2022-10-11T11:13:06.206Z,9
2022-10-11T11:14:06.230Z,9
2022-10-11T11:15:06.213Z,9
2022-10-11T11:16:06.765Z,9
2022-10-11T11:17:06.220Z,9
2022-10-11T11:18:06.200Z,9
2022-10-11T11:19:06.197Z,9
2022-10-11T11:20:06.209Z,10
2022-10-11T11:21:06.206Z,9
2022-10-11T11:22:06.214Z,9
2022-10-11T11:23:06.204Z,10
2022-10-11T11:24:06.198Z,9
2022-10-11T11:25:06.242Z,9
2022-10-11T11:26:06.555Z,9
2022-10-11T11:27:06.196Z,9
2022-10-11T11:28:06.202Z,9
2022-10-11T11:29:06.196Z,8
2022-10-11T11:30:06.205Z,9
2022-10-11T11:31:06.537Z,9
2022-10-11T11:32:06.194Z,8
2022-10-11T11:33:06.194Z,8
2022-10-11T11:34:06.195Z,9
2022-10-11T11:35:06.202Z,9
2022-10-11T11:36:06.592Z,8
2022-10-11T11:37:06.206Z,8
2022-10-11T11:38:06.718Z,8
2022-10-11T11:39:06.193Z,7
2022-10-11T11:40:06.228Z,7
2022-10-11T11:41:06.564Z,6
2022-10-11T11:42:06.195Z,6
2022-10-11T11:43:06.200Z,6
2022-10-11T11:44:06.204Z,6
2022-10-11T11:45:06.242Z,7
2022-10-11T11:46:06.188Z,6
2022-10-11T11:47:06.208Z,6
2022-10-11T11:48:06.206Z,7
2022-10-11T11:49:10.798Z,6
2022-10-11T11:50:06.210Z,6
2022-10-11T11:51:06.635Z,6
2022-10-11T11:52:06.203Z,6
2022-10-11T11:53:06.199Z,6
2022-10-11T11:54:06.190Z,4
2022-10-11T11:55:06.214Z,6
2022-10-11T11:56:06.201Z,6
2022-10-11T11:57:06.190Z,5
2022-10-11T11:58:07.372Z,6
2022-10-11T11:59:06.196Z,6
2022-10-11T12:01:06.539Z,6
2022-10-11T12:02:06.267Z,5
2022-10-11T12:03:06.204Z,5
2022-10-11T12:04:06.256Z,5
2022-10-11T12:05:06.256Z,5
2022-10-11T12:06:06.209Z,5
2022-10-11T12:07:21.634Z,5
2022-10-11T12:08:06.190Z,5
2022-10-11T12:09:06.257Z,5
2022-10-11T12:10:06.265Z,4
2022-10-11T12:11:06.636Z,4
2022-10-11T12:12:06.272Z,4
2022-10-11T12:13:06.251Z,3
2022-10-11T12:15:06.272Z,3
2022-10-11T12:16:06.253Z,3
2022-10-11T12:17:06.265Z,3
2022-10-11T12:18:06.249Z,3
2022-10-11T12:19:06.249Z,3
2022-10-11T12:20:06.257Z,2
2022-10-11T12:21:06.737Z,2
2022-10-11T12:22:06.279Z,3
2022-10-11T12:23:06.263Z,2
2022-10-11T12:24:06.249Z,3
2022-10-11T12:25:06.277Z,3
2022-10-11T12:26:06.269Z,2
2022-10-11T12:27:06.280Z,2
2022-10-11T12:28:06.242Z,2
2022-10-11T12:29:06.248Z,2
2022-10-11T12:30:06.252Z,2
2022-10-11T12:31:06.614Z,2
2022-10-11T12:32:06.263Z,2
2022-10-11T12:33:06.248Z,2
2022-10-11T12:34:06.249Z,2
2022-10-11T12:35:06.276Z,2
2022-10-11T12:36:08.428Z,2
2022-10-11T12:37:06.807Z,2
2022-10-11T12:38:06.254Z,2
2022-10-11T12:39:06.248Z,2
2022-10-11T12:40:06.276Z,2
2022-10-11T12:41:06.270Z,2
2022-10-11T12:42:06.259Z,2
2022-10-11T12:43:06.246Z,2
2022-10-11T12:44:06.256Z,2
2022-10-11T12:45:06.264Z,2
2022-10-11T12:46:06.496Z,2
2022-10-11T12:47:06.258Z,2
2022-10-11T12:48:06.262Z,2
2022-10-11T12:49:06.278Z,3
2022-10-11T12:50:06.268Z,2
2022-10-11T12:51:06.237Z,2
2022-10-11T12:52:06.271Z,2
2022-10-11T12:53:06.261Z,3
2022-10-11T12:54:25.954Z,2
2022-10-11T12:55:06.259Z,2
2022-10-11T12:56:06.668Z,3
2022-10-11T12:57:11.043Z,2
2022-10-11T12:58:06.293Z,2
2022-10-11T12:59:06.255Z,2
2022-10-11T13:00:06.256Z,2
2022-10-11T13:01:06.304Z,2
2022-10-11T13:02:06.265Z,2
2022-10-11T13:03:06.274Z,2
2022-10-11T13:04:06.284Z,2
2022-10-11T13:05:06.265Z,2
2022-10-11T13:06:06.644Z,2
2022-10-11T13:07:06.995Z,2
2022-10-11T13:08:06.272Z,2
2022-10-11T13:09:06.266Z,2
2022-10-11T13:10:06.269Z,2
2022-10-11T13:11:06.260Z,2
2022-10-11T13:12:06.273Z,2
2022-10-11T13:13:06.272Z,2
2022-10-11T13:14:06.270Z,2
2022-10-11T13:15:06.293Z,2
2022-10-11T13:16:06.630Z,2
2022-10-11T13:17:06.259Z,2
2022-10-11T13:18:06.263Z,2
2022-10-11T13:19:06.269Z,2
2022-10-11T13:20:06.269Z,2
2022-10-11T13:21:06.545Z,2
2022-10-11T13:22:06.288Z,2
2022-10-11T13:23:06.265Z,3
2022-10-11T13:24:06.270Z,2
2022-10-11T13:25:06.277Z,3
2022-10-11T13:26:06.272Z,2
2022-10-11T13:27:06.277Z,2
2022-10-11T13:28:06.276Z,2
2022-10-11T13:29:06.274Z,3
2022-10-11T13:30:06.260Z,2
2022-10-11T13:31:06.617Z,2
2022-10-11T13:32:06.261Z,2
2022-10-11T13:33:06.277Z,2
2022-10-11T13:34:06.263Z,3
2022-10-11T13:35:06.267Z,2
2022-10-11T13:36:06.602Z,2
2022-10-11T13:37:06.280Z,2
2022-10-11T13:38:06.279Z,2
2022-10-11T13:39:06.266Z,3
2022-10-11T13:40:06.276Z,3
2022-10-11T13:41:06.260Z,2
2022-10-11T13:42:06.279Z,2
2022-10-11T13:43:06.266Z,2
2022-10-11T13:44:06.269Z,2
2022-10-11T13:45:06.266Z,2
2022-10-11T13:46:06.649Z,2
2022-10-11T13:47:06.283Z,2
2022-10-11T13:48:06.265Z,2
2022-10-11T13:49:06.273Z,2
2022-10-11T13:50:06.269Z,2
2022-10-11T13:51:06.261Z,2
2022-10-11T13:52:06.275Z,2
2022-10-11T13:53:06.263Z,3
2022-10-11T13:54:07.781Z,2
2022-10-11T13:55:06.280Z,3
2022-10-11T13:56:06.699Z,2
2022-10-11T13:57:06.268Z,2
2022-10-11T13:58:06.276Z,2
2022-10-11T13:59:06.267Z,2
2022-10-11T14:00:06.335Z,2
2022-10-11T14:01:06.316Z,3
2022-10-11T14:02:06.266Z,2
2022-10-11T14:03:06.274Z,2
2022-10-11T14:04:06.262Z,2
2022-10-11T14:05:06.266Z,2
2022-10-11T14:06:06.616Z,2
2022-10-11T14:07:06.272Z,2
2022-10-11T14:08:06.267Z,2
2022-10-11T14:09:06.268Z,2
2022-10-11T14:10:06.299Z,2
2022-10-11T14:11:06.976Z,2
2022-10-11T14:12:06.271Z,2
2022-10-11T14:13:06.262Z,2
2022-10-11T14:14:06.274Z,2
2022-10-11T14:15:06.294Z,2
2022-10-11T14:16:06.733Z,2
2022-10-11T14:17:06.273Z,2
2022-10-11T14:18:06.272Z,2
2022-10-11T14:19:06.280Z,2
2022-10-11T14:20:11.126Z,2
2022-10-11T14:21:06.626Z,2
2022-10-11T14:22:06.296Z,2
2022-10-11T14:23:06.273Z,2
2022-10-11T14:24:06.271Z,2
2022-10-11T14:25:06.277Z,3
2022-10-11T14:26:06.796Z,2
2022-10-11T14:27:06.269Z,2
2022-10-11T14:28:06.273Z,2
2022-10-11T14:29:06.282Z,2
2022-10-11T14:30:24.573Z,2
2022-10-11T14:31:06.676Z,2
2022-10-11T14:32:06.274Z,3
2022-10-11T14:33:06.256Z,2
2022-10-11T14:34:06.282Z,2
2022-10-11T14:35:06.286Z,3
2022-10-11T14:36:06.601Z,2
2022-10-11T14:37:06.306Z,3
2022-10-11T14:38:06.262Z,3
2022-10-11T14:39:06.319Z,2
2022-10-11T14:40:06.279Z,3
2022-10-11T14:41:06.276Z,2
2022-10-11T14:42:06.264Z,3
2022-10-11T14:43:06.280Z,2
2022-10-11T14:44:06.343Z,3
2022-10-11T14:45:06.289Z,3
2022-10-11T14:46:06.620Z,3
2022-10-11T14:47:06.268Z,2
2022-10-11T14:48:06.286Z,2
2022-10-11T14:49:06.289Z,3
2022-10-11T14:50:06.283Z,2
2022-10-11T14:51:06.333Z,2
2022-10-11T14:52:06.283Z,2
2022-10-11T14:53:06.281Z,3